Abington, CT

9:43 PM EST on March 04, 2015 (GMT -0500)
Pomfret School | Change Station
CLOSE
Current Station
Personal Weather Station
Location: Pomfret, CT
Elevation: 577 ft
Nearby Weather Stations

Elev 577 ft 41.89 °N, 71.97 °W | Updated 11 seconds ago

Mostly Cloudy
Mostly Cloudy
36.1 °F
Feels Like 36 °F
N
0.0
Wind Variable Wind from West
Gusts 0.0 mph

Today
High -- | Low -- °F
--% Chance of Precip.
Yesterday
High -- | Low -- °F
Precip. -- in
6:18 AM 5:41 PM
Full, 100% visible
Pressure 29.86 in
Visibility 10.0 miles
Clouds Overcast 5500 ft
Windchill 36 °F
Dew Point 33 °F
Humidity 87%
Rainfall 0.18 in
Snow Depth Not available.
UV 0 out of 12
Pollen .90 out of 12
Air Quality Not available.
Flu Activity Not available.
METAR KIJD 050152Z AUTO 00000KT 10SM OVC055 03/00 A2985 RMK AO2 SLP111 T00280000

More Conditions Fewer Conditions

Pressure 29.86 in
Visibility 10.0 miles
Clouds Overcast 5500 ft
Windchill 36 °F
Dew Point 33 °F
Humidity 87%
Rainfall 0.18 in
Snow Depth Not available.
UV 0 out of 12
Pollen .90 out of 12
Air Quality Not available.
Flu Activity Not available.
METAR KIJD 050152Z AUTO 00000KT 10SM OVC055 03/00 A2985 RMK AO2 SLP111 T00280000

More Conditions Fewer Conditions

10-Day Weather Forecast

Almanac

Astronomy

Mar. 04, 2015 Rise Set
Actual Time
Civil Twilight
Nautical Twilight
Astronomical Twilight
Moon
Length of Visible Light
Length of Day
Tomorrow will be .
, % of the Moon is Illuminated

Today's Extremes

State Highs State Lows

Community

WunderPhotos

Upload Photos

1,802,634 photos uploaded!

WunderBlogs® & News

Nearby

Air Quality

  Air Quality AQ Index Pollutant
Not available.

Snow Depth

Station Depth Elevation

Earthquake Activity

City Distance Mag. Time & Date
Minimum magnitude displayed is 2.5.

Coastal Water Temperatures

Place Temperature

Nearby Weather Stations